Date,TemperatureHighF,TemperatureAvgF,TemperatureLowF,DewpointHighF,DewpointAvgF,DewpointLowF,HumidityHigh,HumidityAvg,HumidityLow,PressureMaxIn,PressureMinIn,WindSpeedMaxMPH,WindSpeedAvgMPH,GustSpeedMaxMPH,PrecipitationSumIn
2013-1-1,47,44,40,44,35,13,95,71,48,30.06,29.91,9,2,9,0.16
2013-1-2,48,42,36,47,36,26,95,82,49,30.15,29.91,24,2,24,0.20
2013-1-3,42,36,27,29,25,20,85,65,55,30.24,30.12,7,1,7,0.00
2013-1-4,134,34,22,100,23,15,95,68,43,30.29,30.18,12,2,12,0.00
2013-1-5,52,36,24,30,22,16,78,58,43,30.35,30.24,7,1,7,0.00
2013-1-6,55,43,34,37,30,22,83,62,46,30.24,30.03,8,1,8,0.00
2013-1-7,51,38,30,30,25,21,80,61,44,30.41,30.18,12,1,12,0.00
2013-1-8,56,40,26,38,29,20,89,68,45,30.44,30.32,7,1,7,0.00
2013-1-9,67,48,36,49,40,4,92,75,50,30.41,30.32,4,0,4,0.00
2013-1-10,62,50,44,45,39,29,93,70,38,30.53,30.38,13,1,13,0.00
2013-1-11,46,42,39,45,39,31,100,90,57,30.38,30.15,9,2,9,0.12
2013-1-12,66,54,45,57,51,-8,100,92,71,30.15,30.09,7,2,7,0.12
2013-1-13,73,60,52,67,54,50,100,83,51,30.09,30.00,12,2,12,0.00
2013-1-14,103,58,48,62,57,48,100,99,94,30.21,30.03,17,2,17,1.02
2013-1-15,48,41,39,48,41,-2,100,100,100,30.24,30.06,15,5,15,0.79
2013-1-16,48,43,37,48,43,37,100,100,100,30.09,29.94,10,2,10,0.43
2013-1-17,48,41,32,48,40,32,100,100,97,30.15,29.91,18,4,18,1.69
2013-1-18,45,32,26,45,32,26,100,99,94,30.47,30.15,6,0,6,0.63
2013-1-19,50,36,25,40,26,8,98,73,39,30.44,30.09,10,2,10,0.04
2013-1-20,59,42,32,32,25,20,68,50,36,30.12,29.97,14,4,14,0.00
2013-1-21,54,35,28,27,19,-18,80,54,11,30.06,29.85,21,2,21,0.00
2013-1-22,38,28,20,13,7,0,43,40,32,30.24,29.94,14,2,14,0.00
2013-1-23,42,27,17,17,7,-9,51,43,34,30.32,30.00,11,2,11,0.00
2013-1-24,36,28,19,16,9,1,55,44,35,30.47,29.94,19,3,19,0.00
2013-1-25,26,23,18,20,9,0,78,56,44,30.47,30.06,11,2,11,0.00
2013-1-26,41,30,21,30,20,16,89,69,49,30.35,30.06,8,2,8,0.04
2013-1-27,43,32,22,22,17,12,69,56,42,30.56,30.35,9,2,9,0.00
2013-1-28,51,40,33,41,29,20,80,64,42,30.44,30.18,11,4,11,0.04
2013-1-29,70,54,41,52,43,33,93,69,35,30.18,30.03,11,4,11,0.00
2013-1-30,71,64,54,60,54,46,94,72,51,30.03,29.38,22,6,22,0.94
2013-1-31,54,42,31,52,26,14,95,57,38,29.97,29.44,18,6,18,0.12
2013-2-1,39,32,21,21,11,-17,61,41,34,30.35,29.82,15,5,15,0.00
2013-2-2,42,30,18,22,11,1,61,45,36,30.35,30.00,9,2,10,0.00
2013-2-3,51,37,27,34,21,12,83,54,38,30.00,29.82,13,3,13,0.00
2013-2-4,49,35,24,24,18,-19,65,50,37,30.12,29.94,11,2,11,0.00
2013-2-5,60,44,35,33,24,18,61,46,35,29.94,29.85,14,3,14,0.00
2013-2-6,60,43,30,39,25,15,82,51,32,30.27,29.94,9,2,9,0.00
2013-2-7,44,37,33,33,25,15,96,65,44,30.32,30.03,11,5,12,1.24
2013-2-8,59,42,34,45,29,14,98,66,28,30.06,29.79,9,4,12,0.20
2013-2-9,53,38,26,22,11,4,60,35,20,30.32,30.06,12,2,12,0.00
2013-2-10,55,40,26,25,12,4,52,33,21,30.44,30.15,12,2,12,0.04
2013-2-11,55,48,41,49,39,26,84,73,52,30.15,29.91,10,2,9,0.04
2013-2-12,62,48,35,43,28,18,85,51,21,30.06,29.06,92,3,96,0.20
2013-2-13,48,43,33,47,39,30,104,85,71,29.97,28.88,9,1,9,0.20
2013-2-14,54,37,28,46,25,20,93,64,32,30.03,29.82,9,1,9,0.04
2013-2-15,62,44,31,43,28,20,84,58,28,30.06,29.91,12,3,12,0.00
2013-2-16,40,35,26,25,18,-18,61,51,40,29.97,29.82,11,2,11,0.00
2013-2-17,40,28,21,12,6,1,54,41,30,30.24,29.91,14,3,14,0.00
2013-2-18,56,35,17,24,13,4,60,41,27,30.35,30.18,10,2,10,0.00
2013-2-19,85,38,30,39,26,14,82,64,40,30.18,29.82,12,4,12,0.12
2013-2-20,54,38,27,23,14,5,75,38,27,30.15,29.97,16,4,16,0.00
2013-2-21,53,33,22,21,10,3,53,38,27,30.24,30.09,10,2,10,0.00
2013-2-22,41,35,30,29,23,13,83,63,32,30.29,30.09,11,2,11,0.16
2013-2-23,49,39,33,46,33,29,93,82,61,30.12,29.79,12,2,12,0.24
2013-2-24,62,46,37,48,28,-14,91,54,7,30.03,29.79,13,2,13,0.00
2013-2-25,45,35,30,18,15,11,52,43,34,30.21,30.03,12,3,12,0.00
2013-2-26,39,35,30,37,29,13,95,81,49,30.15,29.59,13,2,13,0.87
2013-2-27,60,45,38,48,32,-19,95,67,32,29.76,29.62,13,3,13,0.00
2013-2-28,53,40,31,32,22,16,69,51,33,29.85,29.67,12,2,12,0.00
2013-3-1,98,39,32,26,19,14,58,44,35,29.91,29.82,8,1,8,0.00
2013-3-2,52,38,27,24,15,7,51,40,31,29.91,29.79,12,2,12,0.00
2013-3-3,47,34,23,20,11,2,53,39,31,29.97,29.85,14,2,14,0.00
2013-3-4,53,35,21,20,11,6,52,38,27,30.09,29.97,10,2,10,0.00
2013-3-5,52,42,34,37,30,12,90,64,33,30.03,29.59,181,3,181,0.47
2013-3-6,51,42,32,36,24,16,91,52,33,30.06,29.56,16,4,16,0.20
2013-3-7,54,39,29,25,19,13,61,46,32,30.24,30.06,9,0,9,0.00
2013-3-8,57,40,27,39,21,12,52,47,27,30.29,30.18,7,2,10,0.00
2013-3-9,63,44,26,30,21,14,66,41,27,30.32,30.21,10,1,10,0.00
2013-3-10,70,51,31,34,24,12,58,36,24,30.29,30.18,11,2,11,0.00
2013-3-11,67,54,41,45,30,1,66,39,28,30.18,29.88,16,4,16,0.00
2013-3-12,70,59,41,57,42,20,92,57,30,29.97,29.73,16,3,16,0.59
2013-3-13,56,39,29,35,21,-50,76,49,29,30.12,29.94,16,2,16,0.00
2013-3-14,55,38,26,24,14,8,50,37,27,30.21,30.12,12,2,12,0.00
2013-3-15,64,42,27,31,17,2,53,37,27,30.15,29.94,15,3,15,0.00
2013-3-16,116,64,41,44,36,24,64,38,27,29.94,29.62,15,4,15,0.04
2013-3-17,54,46,37,46,36,28,90,70,53,30.06,29.82,16,5,17,0.00
2013-3-18,39,36,35,36,33,31,93,88,79,30.18,29.85,14,5,14,0.24
2013-3-19,66,47,35,49,28,11,93,57,24,30.03,29.79,15,4,16,0.12
2013-3-20,59,44,30,25,14,4,38,30,26,30.09,29.76,13,2,13,0.00
2013-3-21,48,38,24,19,14,4,50,37,28,29.97,29.76,13,2,13,0.00
2013-3-22,56,33,23,22,10,5,52,39,26,30.06,29.94,10,2,10,0.00
2013-3-23,134,40,31,28,17,9,48,40,25,30.03,29.88,7,0,7,0.00
2013-3-24,80,36,32,32,26,-18,88,68,7,29.91,29.56,15,4,15,0.51
2013-3-25,49,38,32,40,24,14,91,63,34,29.76,29.53,18,3,18,0.04
2013-3-26,51,39,30,28,19,14,61,45,33,30.12,29.76,13,2,13,0.00
2013-3-27,55,38,25,34,18,11,77,48,29,30.21,30.12,15,2,15,0.00
2013-3-28,59,44,26,29,19,12,66,37,26,30.27,30.15,13,2,13,0.00
2013-3-29,63,44,27,29,19,-9,63,39,7,30.29,30.27,11,2,11,0.00
2013-3-30,90,51,34,42,22,14,51,34,19,30.29,30.06,10,2,10,0.00
2013-3-31,67,55,46,52,41,23,81,61,39,30.06,29.79,10,2,10,0.24
2013-4-1,72,56,42,56,42,29,58,58,58,30.00,29.82,15,3,15,0.24
2013-4-2,61,48,36,31,21,6,58,35,25,30.15,30.00,12,3,12,0.00
2013-4-3,83,45,29,55,16,-8,48,32,25,30.29,30.12,12,3,12,0.00
2013-4-4,43,37,34,33,23,9,94,63,30,30.35,29.97,15,5,15,0.79
2013-4-5,66,48,34,51,34,21,94,67,27,30.03,29.88,9,2,10,0.12
2013-4-6,66,50,34,100,24,18,58,38,24,30.24,30.03,15,3,15,0.00
2013-4-7,73,57,39,38,30,23,68,38,28,30.24,30.09,17,3,17,0.00
2013-4-8,81,64,49,54,40,32,77,44,26,30.15,30.03,8,4,9,0.00
2013-4-9,86,69,54,54,43,38,71,41,25,30.18,30.03,12,4,12,0.00
2013-4-10,88,73,58,50,45,41,60,38,24,30.09,29.94,11,4,12,0.00
2013-4-11,85,68,59,53,45,38,70,45,26,29.97,29.76,15,4,15,0.00
2013-4-12,85,67,55,62,51,36,100,61,37,29.79,29.59,17,4,17,0.87
2013-4-13,76,60,43,49,39,31,67,47,35,30.00,29.79,11,2,11,0.00
2013-4-14,82,64,44,50,41,29,64,44,32,30.09,30.00,10,1,10,0.00
2013-4-15,70,59,53,56,51,43,100,76,48,30.21,30.03,12,3,12,0.12
2013-4-16,73,60,58,56,48,-15,93,68,41,30.21,30.18,10,2,10,0.00
2013-4-17,76,66,56,67,56,51,94,70,49,30.21,30.12,10,1,10,0.00
2013-4-18,98,70,62,74,57,50,87,66,40,30.18,30.00,12,4,12,8.70
2013-4-19,79,67,55,68,61,54,100,81,53,30.00,29.70,18,5,18,0.51
2013-4-20,134,52,41,54,36,22,99,56,38,30.15,29.85,13,2,13,0.47
2013-4-21,62,48,36,38,32,22,81,55,41,30.50,30.15,18,3,18,0.00
2013-4-22,62,49,34,46,34,29,92,58,36,30.44,30.27,15,5,15,0.00
2013-4-23,72,56,45,48,41,31,80,58,40,30.29,30.09,12,3,12,0.00
2013-4-24,78,57,47,60,49,42,100,78,39,30.12,29.97,16,2,16,8.43
2013-4-25,71,56,43,52,41,23,77,57,35,30.27,30.00,12,2,12,0.00
2013-4-26,74,56,37,46,36,28,76,51,34,30.44,30.27,6,1,6,0.00
2013-4-27,75,61,51,51,44,35,87,55,39,30.35,30.24,9,1,9,0.00
2013-4-28,58,54,52,54,52,50,100,94,82,30.24,30.06,13,1,13,1.02
2013-4-29,57,54,52,55,53,51,100,95,84,30.06,29.91,10,1,10,0.63
2013-4-30,70,58,51,58,52,47,100,83,49,30.09,29.91,14,1,14,0.00
2013-5-1,69,59,52,56,52,46,99,81,47,30.24,30.09,14,5,14,0.00
2013-5-2,62,57,52,52,46,40,91,68,57,30.27,30.21,14,4,14,0.00
2013-5-3,69,57,47,52,45,36,100,68,42,30.24,30.12,15,4,15,0.00
2013-5-4,63,54,46,48,41,-15,80,64,45,30.21,30.06,16,6,16,0.00
2013-5-5,55,52,46,54,44,37,100,75,59,30.09,29.97,16,6,16,0.04
2013-5-6,68,59,53,66,56,13,100,91,18,29.97,29.79,16,5,16,1.22
2013-5-7,74,60,52,64,53,44,100,81,44,29.91,29.82,14,1,14,0.04
2013-5-8,68,58,51,59,54,49,100,86,62,29.97,29.88,7,0,7,0.00
2013-5-9,84,64,48,72,54,48,100,76,37,30.03,29.94,10,0,10,0.00
2013-5-10,87,71,54,63,56,51,98,64,37,30.03,29.91,11,1,11,0.00
2013-5-11,85,72,61,62,57,54,100,62,39,29.94,29.76,10,2,10,0.08
2013-5-12,74,61,44,61,47,31,100,65,36,30.03,29.79,12,1,12,0.00
2013-5-13,70,53,37,44,36,16,89,54,35,30.18,30.03,12,1,12,0.00
2013-5-14,58,51,35,43,35,30,94,56,36,30.21,30.03,11,1,11,0.00
2013-5-15,83,65,51,57,47,38,72,52,36,30.03,29.88,11,2,11,0.00
2013-5-16,88,71,57,65,56,52,96,62,36,30.00,29.88,8,2,8,0.00
2013-5-17,91,73,59,66,58,50,95,63,36,30.09,29.97,9,1,9,0.00
2013-5-18,78,66,60,66,62,58,100,86,63,30.15,30.09,8,1,8,0.12
2013-5-19,81,68,62,70,63,59,100,84,51,30.12,30.03,10,2,10,0.12
2013-5-20,82,72,65,73,65,60,100,81,52,30.09,30.00,10,1,10,0.43
2013-5-21,87,74,66,76,66,60,100,79,43,30.03,29.91,9,1,9,0.00
2013-5-22,86,74,66,70,63,57,100,72,46,29.97,29.91,14,2,14,0.00
2013-5-23,78,69,62,78,68,59,100,98,81,29.94,29.79,8,1,8,0.12
2013-5-24,68,61,48,67,48,32,100,67,40,30.21,29.82,12,2,12,0.00
2013-5-25,76,56,41,48,38,23,91,54,34,30.27,30.15,9,1,9,0.00
2013-5-26,77,62,51,50,44,34,70,52,38,30.27,30.15,9,0,9,0.00
2013-5-27,83,66,50,57,50,43,92,59,38,30.27,30.15,10,1,10,0.00
2013-5-28,88,76,60,66,57,49,96,55,38,30.21,30.12,11,3,11,0.00
2013-5-29,90,74,60,65,59,56,85,63,41,30.24,30.15,11,2,11,0.00
2013-5-30,88,74,63,66,61,56,100,68,46,30.27,30.18,10,2,10,0.00
2013-5-31,89,75,62,72,64,58,100,70,44,30.21,30.09,12,2,12,0.00
2013-6-1,90,77,66,68,64,58,100,67,42,30.12,30.00,12,3,12,0.00
2013-6-2,87,73,66,68,65,60,100,77,52,30.03,29.91,12,2,12,1.02
2013-6-3,86,70,64,79,67,58,100,92,47,29.97,29.85,12,0,14,1.18
2013-6-4,79,68,60,72,62,58,100,85,56,30.12,29.97,10,1,10,0.00
2013-6-5,77,66,59,68,62,58,100,90,57,30.15,30.03,8,1,8,0.00
2013-6-6,73,65,63,72,65,63,100,100,93,30.03,29.82,9,1,9,1.57
2013-6-7,76,69,66,76,69,66,100,100,95,29.85,29.62,12,1,12,0.43
2013-6-8,83,70,61,77,62,57,100,79,48,30.09,29.82,8,1,8,0.43
2013-6-9,90,78,64,79,67,62,100,71,46,30.15,30.06,12,1,12,0.00
2013-6-10,84,72,66,77,70,65,100,93,63,30.09,29.85,12,1,12,0.55
2013-6-11,87,73,65,78,64,42,100,76,48,29.97,29.88,8,0,8,0.55
2013-6-12,92,73,62,86,69,62,100,89,53,29.97,29.88,10,0,10,0.47
2013-6-13,94,78,63,89,69,58,100,78,43,29.88,29.62,14,1,14,0.24
2013-6-14,83,69,57,72,58,52,100,72,44,30.03,29.76,14,1,14,0.24
2013-6-15,85,66,56,68,58,54,100,79,44,30.15,30.03,7,0,7,0.00
2013-6-16,91,75,63,69,64,60,97,71,48,30.12,30.00,10,1,10,0.00
2013-6-17,88,75,69,78,70,65,100,87,54,30.03,29.94,7,0,7,0.28
2013-6-18,83,71,67,73,70,64,100,94,64,29.97,29.79,9,0,9,1.02
2013-6-19,83,73,61,76,64,61,100,78,49,30.09,29.88,9,2,9,0.00
2013-6-20,83,70,62,75,63,58,100,81,51,30.27,30.09,8,1,8,0.00
2013-6-21,82,70,58,66,58,54,100,69,45,30.29,30.21,11,2,11,0.00
2013-6-22,80,70,59,70,64,59,100,84,52,30.24,30.12,10,2,10,0.00
2013-6-23,89,76,65,79,67,61,100,78,51,30.21,30.12,11,1,11,0.00
2013-6-24,91,77,67,89,74,65,100,91,57,30.21,30.09,11,1,11,0.00
2013-6-25,91,80,67,78,69,60,100,72,51,30.12,30.00,11,1,11,0.00
2013-6-26,91,76,67,78,70,62,100,84,52,30.03,29.91,10,1,10,0.20
2013-6-27,87,76,66,83,70,65,100,83,53,29.94,29.73,10,1,10,0.00
2013-6-28,91,78,67,84,71,65,100,82,51,29.76,29.59,12,1,12,0.08
2013-6-29,88,76,66,80,68,64,100,80,53,29.73,29.62,11,2,11,0.00
2013-6-30,88,74,68,79,71,66,100,91,58,29.85,29.70,12,2,12,0.12
2013-7-1,84,77,68,81,68,65,100,76,57,30.00,29.85,12,2,12,0.12
2013-7-2,80,72,69,78,71,38,100,96,76,30.18,29.97,15,2,15,0.24
2013-7-3,84,74,69,82,73,69,100,97,73,30.24,30.15,9,1,9,0.51
2013-7-4,87,76,70,82,71,66,100,86,55,30.27,30.18,12,2,12,1.14
2013-7-5,87,76,34,79,71,24,100,86,58,30.27,30.18,13,2,13,0.24
2013-7-6,87,76,68,81,70,64,100,83,53,30.24,30.12,11,1,11,0.00
2013-7-7,86,76,69,79,71,-5,100,87,59,30.21,30.06,12,1,12,0.43
2013-7-8,86,76,69,81,70,66,100,85,57,30.18,30.09,6,0,6,0.28
2013-7-9,89,77,69,82,73,69,100,88,57,30.15,30.06,8,0,8,0.00
2013-7-10,89,77,69,82,72,68,100,85,56,30.09,29.94,14,1,14,0.00
2013-7-11,84,72,70,81,71,68,100,97,65,29.97,29.88,9,0,9,0.20
2013-7-12,75,70,67,73,67,62,100,90,68,30.06,29.88,14,3,14,0.16
2013-7-13,76,70,67,75,70,66,100,98,89,30.18,30.06,14,3,14,0.16
2013-7-14,86,76,70,76,69,64,100,83,55,30.32,30.18,11,3,11,0.04
2013-7-15,87,74,67,83,70,42,100,89,24,30.35,30.27,8,0,8,0.00
2013-7-16,90,78,67,86,74,67,100,88,56,30.29,30.21,9,0,9,0.00
2013-7-17,90,79,70,82,73,68,100,83,54,30.24,30.12,10,1,10,0.00
2013-7-18,90,79,69,87,73,65,100,83,48,30.18,30.06,7,1,7,1.00
2013-7-19,90,79,71,84,74,71,100,86,61,30.09,29.97,9,1,9,0.00
2013-7-20,89,76,71,82,74,68,100,95,65,30.03,29.91,9,1,9,0.00
2013-7-21,89,75,70,84,72,44,100,93,61,30.00,29.94,7,0,7,0.04
2013-7-22,90,76,69,85,72,61,100,90,56,29.97,29.82,9,1,9,0.00
2013-7-23,91,76,69,72,68,52,100,78,52,29.85,29.73,8,1,8,0.00
2013-7-24,91,77,67,78,68,63,100,76,46,29.88,29.76,10,1,10,0.00
2013-7-25,83,72,63,72,64,60,100,80,54,30.06,29.88,9,2,9,0.31
2013-7-26,87,73,62,73,65,61,100,78,52,30.12,30.03,7,0,8,0.31
2013-7-27,74,70,66,73,69,64,100,97,84,30.06,29.94,10,0,10,0.43
2013-7-28,88,74,67,79,69,64,100,84,53,30.03,29.91,8,0,8,0.31
2013-7-29,84,72,63,72,63,57,100,76,46,30.18,30.00,9,1,10,0.00
2013-7-30,87,71,58,69,63,58,100,77,43,30.24,30.15,7,1,8,0.00
2013-7-31,81,72,66,75,69,66,100,91,65,30.18,30.00,12,1,12,0.12
2013-8-1,88,76,68,81,70,65,100,82,57,30.00,29.88,7,0,7,0.08
2013-8-2,88,74,64,77,66,60,100,80,45,30.06,29.94,8,1,8,0.00
2013-8-3,90,76,66,80,70,66,100,84,52,30.03,29.94,5,0,6,0.00
2013-8-4,87,75,66,76,65,58,100,75,43,30.06,29.91,14,2,14,0.00
2013-8-5,83,72,61,67,64,60,100,77,53,30.12,30.00,11,1,11,0.04
2013-8-6,85,72,63,71,67,63,100,85,60,30.09,30.00,11,2,11,0.00
2013-8-7,87,74,67,73,69,66,100,86,58,30.09,30.03,9,2,9,0.00
2013-8-8,88,76,69,77,71,68,100,87,59,30.09,30.00,11,2,11,0.00
2013-8-9,94,78,70,83,72,67,100,82,52,30.06,29.97,9,1,9,0.00
2013-8-10,94,76,70,83,72,68,100,90,52,30.09,30.06,8,0,8,0.20
2013-8-11,92,76,69,83,72,66,100,90,52,30.12,30.03,10,0,10,0.08
2013-8-12,91,78,68,84,71,68,100,83,52,30.09,29.97,90,0,90,0.24
2013-8-13,89,75,68,81,71,68,100,91,57,29.97,29.82,11,1,11,0.35
2013-8-14,78,69,60,73,60,51,100,77,45,30.09,29.88,13,2,13,0.00
2013-8-15,77,65,56,65,56,51,100,77,47,30.18,30.09,12,1,12,0.00
2013-8-16,73,58,53,66,56,53,100,92,56,30.21,30.12,8,1,8,0.00
2013-8-17,67,61,57,66,61,47,100,98,81,30.21,30.15,12,3,12,1.50
2013-8-18,76,67,63,72,65,35,100,92,65,30.21,30.12,9,2,9,0.35
2013-8-19,78,68,-1,75,67,-1,100,97,81,30.21,30.09,7,0,7,0.39
2013-8-20,86,73,63,79,68,36,100,87,58,30.21,30.12,6,0,6,0.00
2013-8-21,83,70,67,74,68,-1,100,94,64,30.21,30.12,9,0,9,0.00
2013-8-22,90,77,68,77,70,62,100,81,51,30.15,30.03,7,0,7,0.00
2013-8-23,87,72,62,80,68,61,100,88,56,30.12,29.97,18,1,18,0.24
2013-8-24,81,68,58,69,59,54,100,76,44,30.32,30.12,14,2,14,0.00
2013-8-25,80,66,57,70,58,54,100,79,52,30.41,30.29,10,1,10,0.00
2013-8-26,82,66,54,72,59,21,100,81,24,30.32,30.12,5,0,6,0.00
2013-8-27,90,74,61,74,67,61,100,82,51,30.12,29.97,5,0,6,0.00
2013-8-28,85,71,67,73,68,57,100,90,64,30.00,29.88,8,0,8,4.92
2013-8-29,87,76,69,78,68,63,100,79,49,30.03,29.88,9,2,12,0.00
2013-8-30,87,73,65,69,65,38,99,79,46,30.09,29.94,7,0,7,0.00
2013-8-31,90,72,66,73,67,62,100,84,47,29.97,29.88,10,1,10,0.04
2013-9-1,90,76,66,78,68,65,100,79,48,29.91,29.82,7,1,7,0.16
2013-9-2,90,75,67,78,69,63,100,83,48,29.91,29.82,4,0,4,0.00
2013-9-3,88,73,65,70,64,47,100,77,46,29.97,29.85,9,0,9,0.00
2013-9-4,83,69,59,68,60,54,100,75,43,30.12,29.97,9,2,9,0.00
2013-9-5,85,70,59,70,60,53,100,74,39,30.12,30.06,11,1,11,0.00
2013-9-6,79,66,-59,78,58,50,98,79,40,30.21,30.12,47,2,47,0.00
2013-9-7,82,67,55,77,60,54,100,81,49,30.15,30.00,9,0,9,0.00
2013-9-8,87,72,60,73,62,22,100,76,41,30.00,29.94,9,1,9,0.00
2013-9-9,86,74,64,71,66,62,100,78,49,30.18,29.94,10,2,10,0.00
2013-9-10,89,75,68,81,67,63,100,79,46,30.24,30.15,8,1,8,0.00
2013-9-11,92,77,66,75,67,-1,100,74,45,30.21,30.09,8,0,8,0.00
2013-9-12,91,73,66,78,68,58,100,87,46,30.09,29.85,12,0,12,1.30
2013-9-13,79,66,56,75,55,30,100,71,18,29.94,29.79,12,1,12,0.00
2013-9-14,73,60,51,55,49,44,98,70,41,30.15,29.94,12,1,12,0.00
2013-9-15,78,62,48,59,53,46,97,74,48,30.24,30.12,8,1,8,0.00
2013-9-16,84,69,58,71,59,52,100,74,42,30.24,30.09,13,2,13,0.00
2013-9-17,71,61,53,58,50,43,98,69,42,30.35,30.24,12,2,12,0.00
2013-9-18,72,63,49,54,49,44,92,64,45,30.32,30.18,9,2,9,0.00
2013-9-19,76,65,57,61,56,-15,94,75,49,30.21,30.09,7,0,7,0.00
2013-9-20,70,66,63,69,64,61,100,95,88,30.09,30.00,8,1,8,0.20
2013-9-21,76,67,62,71,66,23,100,96,73,30.00,29.73,10,1,10,0.35
2013-9-22,75,64,56,62,55,48,100,77,42,29.91,29.73,13,1,13,0.00
2013-9-23,72,60,53,54,50,44,96,74,44,30.09,29.91,10,1,10,0.00
2013-9-24,79,62,54,62,54,51,97,77,48,30.09,29.94,6,1,6,0.00
2013-9-25,67,60,52,64,58,51,100,92,80,29.97,29.88,6,0,6,0.00
2013-9-26,73,62,53,66,54,44,100,77,41,30.06,29.91,12,1,12,0.04
2013-9-27,75,58,49,63,52,24,100,83,42,30.21,30.06,12,1,12,0.00
2013-9-28,71,58,50,59,50,44,98,75,48,30.27,30.18,13,2,13,0.00
2013-9-29,72,58,49,60,50,45,100,77,43,30.21,30.06,7,1,8,0.00
2013-9-30,75,59,48,73,52,47,100,81,42,30.09,30.00,6,0,6,0.00
2013-10-1,82,64,53,66,55,51,99,75,40,30.12,30.03,10,0,10,0.00
2013-10-2,84,68,54,71,58,54,100,74,39,30.15,30.06,9,1,9,0.00
2013-10-3,85,70,57,70,60,56,100,73,41,30.15,30.06,7,0,7,0.00
2013-10-4,87,69,59,70,60,54,100,77,39,30.15,30.06,9,1,9,0.00
2013-10-5,87,67,62,75,61,58,100,83,39,30.15,30.03,7,0,7,0.00
2013-10-6,83,70,62,75,61,18,100,76,46,30.06,29.94,10,1,10,0.00
2013-10-7,76,67,56,72,63,49,100,87,61,30.03,29.82,12,2,12,0.75
2013-10-8,67,57,50,49,44,40,86,63,44,30.24,30.03,17,4,17,0.00
2013-10-9,67,55,49,47,44,39,84,67,44,30.24,30.15,15,5,15,0.00
2013-10-10,68,59,52,61,53,42,98,81,62,30.15,29.97,9,2,11,0.20
2013-10-11,74,65,59,61,57,54,95,77,52,30.00,29.91,8,1,8,0.00
2013-10-12,68,63,60,63,59,53,100,86,67,30.12,29.97,10,2,10,97.24
2013-10-13,65,61,58,63,60,-1,100,98,85,30.24,30.12,12,4,12,0.39
2013-10-14,65,59,54,62,57,50,100,92,69,30.27,30.21,12,4,12,0.04
2013-10-15,63,59,50,59,48,38,100,70,44,30.24,30.09,12,2,12,0.04
2013-10-16,75,64,58,62,56,24,94,75,27,30.09,29.94,7,0,7,0.00
2013-10-17,69,63,58,67,61,57,100,94,77,29.97,29.82,7,1,7,0.04
2013-10-18,67,58,47,62,49,42,100,76,43,30.06,29.88,8,1,8,0.00
2013-10-19,61,56,51,60,54,49,100,95,89,29.97,29.82,7,0,7,0.00
2013-10-20,62,50,41,53,40,35,100,73,42,30.12,29.94,11,1,11,0.00
2013-10-21,68,50,36,56,42,35,100,77,45,30.15,29.97,10,1,10,0.00
2013-10-22,72,58,52,59,50,45,93,76,49,30.00,29.79,8,1,8,0.00
2013-10-23,67,54,38,56,43,29,97,70,41,30.03,29.70,12,2,12,1.00
2013-10-24,59,44,33,44,32,27,95,66,43,30.18,30.03,10,1,10,0.00
2013-10-25,56,41,32,43,29,25,95,64,43,30.35,30.18,12,1,12,0.00
2013-10-26,58,37,27,41,30,25,97,79,42,30.35,30.03,12,1,12,0.00
2013-10-27,66,51,38,48,36,31,87,60,41,30.12,30.03,9,1,9,0.00
2013-10-28,79,54,41,59,45,36,92,72,44,30.27,30.12,7,1,7,0.00
2013-10-29,74,59,50,53,49,46,100,71,42,30.32,30.24,11,1,11,0.00
2013-10-30,76,62,52,56,52,47,93,72,45,30.27,30.15,6,0,7,0.00
2013-10-31,73,63,57,58,51,49,85,66,49,30.18,29.85,13,3,13,0.00
2013-11-1,67,63,53,65,58,53,100,85,66,29.85,29.67,17,3,17,0.16
2013-11-2,72,56,44,59,45,30,100,71,36,29.97,29.70,7,1,9,0.00
2013-11-3,62,46,35,40,32,26,91,61,38,30.44,29.97,9,1,13,0.00
2013-11-4,52,40,30,33,27,2,100,63,43,30.56,30.35,12,2,12,0.00
2013-11-5,59,45,31,42,32,23,82,61,44,30.56,30.44,9,2,9,0.00
2013-11-6,70,55,47,48,42,37,88,62,41,30.44,30.12,8,1,8,0.00
2013-11-7,64,51,37,58,41,26,100,71,42,30.12,29.94,7,1,7,0.00
2013-11-8,56,40,29,33,25,12,83,57,37,30.29,30.12,11,1,11,0.00
2013-11-9,58,40,26,35,27,20,93,61,40,30.35,30.15,9,1,9,0.00
2013-11-10,70,55,34,43,34,22,84,49,34,30.27,30.06,10,3,12,0.00
2013-11-11,61,43,28,36,27,21,82,54,36,30.32,30.12,7,1,7,0.00
2013-11-12,59,36,27,36,26,12,96,68,42,30.44,30.03,15,3,15,0.04
2013-11-13,47,31,21,26,18,13,89,60,39,30.53,30.41,12,2,12,0.00
2013-11-14,61,39,24,34,22,16,77,53,36,30.41,30.29,10,2,10,0.00
2013-11-15,62,45,28,41,30,18,77,55,38,30.32,30.18,9,1,9,0.00
2013-11-16,58,52,48,53,49,42,100,89,71,30.27,30.21,7,0,7,0.04
2013-11-17,65,58,53,62,54,51,100,90,63,30.21,29.85,10,2,10,0.08
2013-11-18,70,58,43,64,45,24,100,67,36,30.00,29.79,11,2,11,0.08
2013-11-19,55,43,35,31,24,20,58,48,38,30.29,30.00,17,2,17,0.08
2013-11-20,50,40,32,29,22,18,68,50,41,30.44,30.29,15,4,15,0.00
2013-11-21,54,42,34,36,28,23,69,58,47,30.50,30.38,11,3,11,0.00
2013-11-22,66,54,46,56,44,35,98,68,52,30.38,30.09,11,2,11,0.00
2013-11-23,62,52,37,56,41,19,100,69,40,30.21,30.06,12,2,12,0.00
2013-11-24,38,29,22,19,12,7,61,48,40,30.50,30.21,10,2,10,0.00
2013-11-25,40,26,18,20,13,8,67,57,40,30.53,30.32,8,0,8,0.00
2013-11-26,42,35,31,42,31,18,100,88,47,30.32,29.59,10,1,10,1.97
2013-11-27,43,36,25,43,28,10,100,73,52,30.15,29.53,12,2,12,0.83
2013-11-28,40,28,20,21,16,11,75,60,43,30.44,30.15,7,1,7,0.00
2013-11-29,48,34,23,27,20,15,86,58,42,30.62,30.41,10,2,11,0.00
2013-11-30,45,26,21,26,19,16,94,74,45,30.62,30.35,7,1,9,0.00
2013-12-1,55,35,21,31,24,-4,96,67,40,30.35,30.00,9,1,9,0.00
2013-12-2,58,41,26,40,28,22,96,64,42,30.00,29.82,5,0,5,0.00
2013-12-3,57,43,30,42,34,17,92,70,28,29.97,29.85,9,0,9,0.00
2013-12-4,59,50,45,57,48,42,100,94,88,30.06,29.97,7,0,7,0.08
2013-12-5,64,62,55,64,61,55,100,98,90,30.09,30.00,10,2,10,0.12
2013-12-6,76,68,63,64,58,53,100,74,49,30.03,29.91,15,5,15,0.08
2013-12-7,66,49,39,58,44,26,100,84,56,30.44,30.00,13,5,14,72.95
2013-12-8,39,33,30,32,27,-60,100,78,56,30.44,30.27,12,3,12,0.12
2013-12-9,43,38,32,43,38,32,100,100,100,30.27,30.03,5,1,5,0.20
2013-12-10,51,38,27,46,34,21,100,85,52,30.27,29.94,12,2,12,0.39
2013-12-11,51,34,23,30,23,20,94,66,41,30.41,30.27,9,1,9,0.00
2013-12-12,46,30,25,26,19,12,83,65,40,30.35,30.26,10,1,10,0.00
2013-12-13,52,33,23,27,18,-2,71,56,38,30.35,30.24,11,1,11,0.00
2013-12-14,39,36,35,36,30,22,100,81,55,30.27,29.82,10,2,12,0.63
2013-12-15,56,38,28,49,33,21,100,84,43,30.03,29.70,10,2,10,0.00
2013-12-16,57,40,28,51,30,23,85,71,42,30.15,30.03,9,2,9,0.00
2013-12-17,63,45,32,39,31,24,91,61,38,30.09,29.85,9,2,9,0.00
2013-12-18,50,36,25,26,20,15,72,52,39,30.24,30.03,11,2,11,0.00
2013-12-19,62,43,29,35,24,17,61,47,36,30.27,30.18,13,3,13,0.00
2013-12-20,62,52,-1,49,33,-34,72,50,18,30.18,30.09,12,4,12,0.00
2013-12-21,72,60,46,60,51,44,100,76,50,30.12,30.00,16,4,16,0.00
2013-12-22,70,63,59,68,60,20,100,88,18,30.06,29.94,15,4,15,0.91
2013-12-23,62,54,38,62,50,25,100,87,58,30.18,29.97,11,3,11,0.91
2013-12-24,48,35,24,28,20,9,69,53,43,30.44,30.15,10,2,10,0.87
2013-12-25,39,26,18,19,12,8,77,56,41,30.44,30.32,9,1,9,0.79
2013-12-26,50,31,19,29,16,-36,76,55,41,30.35,30.21,9,2,9,0.75
2013-12-27,52,33,22,27,18,13,81,55,38,30.44,30.32,6,0,6,0.00
2013-12-28,58,38,24,34,24,14,81,57,37,30.44,30.15,7,1,7,0.08
2013-12-29,52,42,38,47,38,32,100,88,72,30.15,29.73,11,2,11,0.75
2013-12-30,54,40,33,44,31,23,100,74,52,30.12,29.88,6,1,6,0.75
2013-12-31,50,38,27,36,24,11,97,59,41,30.32,30.09,12,3,12,0.00
2014-1-1,51,36,28,22,15,-13,66,44,10,30.35,30.12,7,1,7,0.00
2014-1-2,47,39,32,39,28,18,100,67,38,30.12,29.62,8,2,8,0.28